Time;durP1;ratioP1;P1;durP2;ratioP2;P2;SDS_P1;SDS_P2;PMS_P1;PMS_P2;Temp;Humidity;BMP_temperature;BMP_pressure;BME280_temperature;BME280_humidity;BME280_pressure;Samples;Min_cycle;Max_cycle;Signal;HPM_P1;HPM_P2
2021/12/09 00:00:13;;;;;;;3.22;1.95;;;5.30;99.90;;;;;;4975243;28;20228;-78
2021/12/09 00:02:39;;;;;;;5.38;2.15;;;5.40;99.90;;;;;;4974745;28;20204;-78
2021/12/09 00:05:05;;;;;;;15.75;2.42;;;5.40;99.90;;;;;;4975184;28;20217;-81
2021/12/09 00:07:31;;;;;;;7.05;2.05;;;5.40;99.90;;;;;;4975156;28;20738;-78
2021/12/09 00:09:57;;;;;;;7.75;1.92;;;5.50;99.90;;;;;;4975110;28;20167;-78
2021/12/09 00:12:23;;;;;;;4.20;2.58;;;5.40;99.90;;;;;;4974883;28;20182;-79
2021/12/09 00:14:50;;;;;;;6.53;2.22;;;5.60;99.90;;;;;;4973649;28;20178;-79
2021/12/09 00:17:16;;;;;;;4.90;2.40;;;5.70;99.90;;;;;;4974551;28;20242;-79
2021/12/09 00:19:41;;;;;;;6.70;1.65;;;5.70;99.90;;;;;;4974647;28;20690;-78
2021/12/09 00:22:11;;;;;;;4.88;2.00;;;5.80;99.90;;;;;;4974535;28;20216;-78
2021/12/09 00:24:37;;;;;;;6.47;1.90;;;5.50;99.90;;;;;;4974810;28;20174;-78
2021/12/09 00:27:03;;;;;;;6.15;1.80;;;5.50;99.90;;;;;;4974311;28;20248;-79
2021/12/09 00:29:29;;;;;;;3.50;1.70;;;5.30;99.90;;;;;;4974582;28;20600;-78
2021/12/09 00:31:54;;;;;;;5.70;1.70;;;5.40;99.90;;;;;;4957306;28;20653;-80
2021/12/09 00:34:28;;;;;;;5.88;2.15;;;5.40;99.90;;;;;;4974926;28;20170;-78
2021/12/09 00:37:11;;;;;;;6.68;2.90;;;5.50;99.90;;;;;;4980223;28;20197;-88
2021/12/09 00:39:36;;;;;;;4.43;1.85;;;5.50;99.90;;;;;;4988076;28;20157;-90
2021/12/09 00:42:02;;;;;;;9.40;2.30;;;5.40;99.90;;;;;;4971936;23;20225;-79
2021/12/09 00:44:28;;;;;;;4.97;1.85;;;5.20;99.90;;;;;;4954058;29;20166;-79
2021/12/09 00:46:54;;;;;;;10.20;1.70;;;5.20;99.90;;;;;;4953395;29;20711;-79
2021/12/09 00:49:20;;;;;;;6.35;1.83;;;5.30;99.90;;;;;;4954893;29;20591;-79
2021/12/09 00:51:46;;;;;;;3.70;1.48;;;5.10;99.90;;;;;;4954908;28;20186;-79
2021/12/09 00:54:11;;;;;;;3.70;2.03;;;5.20;99.90;;;;;;4954792;29;20551;-79
2021/12/09 00:56:37;;;;;;;4.00;2.17;;;5.30;99.90;;;;;;4953670;29;20736;-79
2021/12/09 00:59:03;;;;;;;9.15;1.75;;;5.50;99.90;;;;;;4954995;29;20513;-79
2021/12/09 01:01:28;;;;;;;8.75;2.08;;;5.50;99.90;;;;;;4953518;29;20711;-79
2021/12/09 01:03:54;;;;;;;9.20;1.83;;;5.40;99.90;;;;;;4954913;29;20178;-79
2021/12/09 01:06:20;;;;;;;10.82;1.98;;;5.30;99.90;;;;;;4954685;29;20198;-79
2021/12/09 01:08:46;;;;;;;3.20;1.98;;;5.10;99.90;;;;;;4954006;28;20871;-79
2021/12/09 01:11:14;;;;;;;5.05;2.05;;;5.20;99.90;;;;;;4954924;28;20179;-79
2021/12/09 01:13:41;;;;;;;8.35;1.67;;;5.20;99.90;;;;;;4953564;29;20174;-79
2021/12/09 01:16:07;;;;;;;9.85;1.88;;;5.30;99.90;;;;;;4954545;28;20626;-79
2021/12/09 01:18:37;;;;;;;3.33;1.98;;;5.30;99.90;;;;;;4954793;28;20163;-79
2021/12/09 01:21:03;;;;;;;11.82;2.10;;;5.30;99.90;;;;;;4953419;29;20222;-78
2021/12/09 01:23:29;;;;;;;4.05;1.88;;;5.30;99.90;;;;;;4953191;29;20174;-79
2021/12/09 01:26:01;;;;;;;7.88;2.30;;;5.30;99.90;;;;;;4954440;29;20537;-79
2021/12/09 01:28:31;;;;;;;8.55;2.25;;;5.30;99.90;;;;;;4952814;29;20178;-79
2021/12/09 01:31:05;;;;;;;6.28;2.40;;;5.30;99.90;;;;;;4953065;29;20178;-79
2021/12/09 01:33:33;;;;;;;5.97;1.88;;;5.30;99.90;;;;;;4954496;28;20252;-80
2021/12/09 01:35:59;;;;;;;6.28;1.90;;;5.20;99.90;;;;;;4954002;29;21160;-79
2021/12/09 01:38:28;;;;;;;4.63;2.25;;;5.20;99.90;;;;;;4953975;28;20576;-79
2021/12/09 01:41:00;;;;;;;2.92;1.70;;;5.30;99.90;;;;;;4954046;28;20658;-79
2021/12/09 01:43:29;;;;;;;8.77;2.58;;;5.30;99.90;;;;;;4952971;29;20178;-78
2021/12/09 01:46:07;;;;;;;4.88;2.15;;;5.30;99.90;;;;;;4952879;29;20179;-86
2021/12/09 01:48:33;;;;;;;3.90;1.95;;;5.00;99.90;;;;;;4953992;28;20534;-80
2021/12/09 01:50:59;;;;;;;3.22;1.58;;;5.10;99.90;;;;;;4954363;28;20182;-79
2021/12/09 01:53:25;;;;;;;7.35;2.58;;;5.20;99.90;;;;;;4952746;29;20504;-79
2021/12/09 01:55:52;;;;;;;3.75;2.00;;;5.30;99.90;;;;;;4952964;29;20189;-80
2021/12/09 01:58:17;;;;;;;5.43;2.40;;;5.10;99.90;;;;;;4953080;29;20177;-79
2021/12/09 02:00:43;;;;;;;2.65;1.52;;;5.20;99.90;;;;;;4954058;29;20526;-79
2021/12/09 02:03:09;;;;;;;5.65;1.67;;;5.10;99.90;;;;;;4954709;29;20241;-87
2021/12/09 02:05:40;;;;;;;5.85;2.45;;;5.10;99.90;;;;;;4953141;29;20225;-80
2021/12/09 02:08:07;;;;;;;8.82;2.92;;;5.00;99.90;;;;;;4955374;28;20593;-80
2021/12/09 02:10:32;;;;;;;6.75;2.47;;;5.10;99.90;;;;;;4953595;29;20181;-80
2021/12/09 02:12:58;;;;;;;2.28;1.52;;;5.20;99.90;;;;;;4955152;29;20254;-88
2021/12/09 02:15:25;;;;;;;5.05;3.05;;;5.20;99.90;;;;;;4953522;29;20220;-82
2021/12/09 02:17:51;;;;;;;3.42;1.90;;;5.00;99.90;;;;;;4955210;28;20253;-80
2021/12/09 02:20:18;;;;;;;13.60;2.25;;;5.00;99.90;;;;;;4957586;28;20170;-80
2021/12/09 02:22:47;;;;;;;6.55;1.88;;;5.00;99.90;;;;;;4958693;29;20218;-81
2021/12/09 02:25:15;;;;;;;2.53;1.80;;;5.00;99.90;;;;;;4960207;28;20170;-81
2021/12/09 02:27:42;;;;;;;3.53;1.65;;;5.10;99.90;;;;;;4958446;29;20706;-81
2021/12/09 02:30:08;;;;;;;2.25;1.30;;;5.00;99.90;;;;;;4957592;28;20174;-80
2021/12/09 02:32:33;;;;;;;5.03;2.22;;;5.10;99.90;;;;;;4956372;29;20641;-80
2021/12/09 02:34:59;;;;;;;9.93;2.38;;;5.10;99.90;;;;;;4957977;29;20181;-82
2021/12/09 02:37:24;;;;;;;18.75;2.33;;;5.10;99.90;;;;;;4958080;29;20190;-83
2021/12/09 02:39:50;;;;;;;7.85;1.77;;;5.10;99.90;;;;;;4958142;29;20174;-84
2021/12/09 02:42:16;;;;;;;4.75;2.00;;;5.10;99.90;;;;;;4957908;28;20688;-86
2021/12/09 02:44:42;;;;;;;3.30;1.50;;;5.20;99.90;;;;;;4956923;29;20177;-83
2021/12/09 02:47:08;;;;;;;3.38;1.77;;;5.20;99.90;;;;;;4957776;28;20194;-85
2021/12/09 02:49:34;;;;;;;2.25;1.20;;;5.10;99.90;;;;;;4956470;29;20171;-85
2021/12/09 02:52:03;;;;;;;6.05;2.08;;;5.00;99.90;;;;;;4956489;29;20237;-83
2021/12/09 02:54:29;;;;;;;9.45;1.73;;;5.00;99.90;;;;;;4957967;28;20229;-83
2021/12/09 02:57:01;;;;;;;3.83;1.33;;;4.90;99.90;;;;;;4957941;28;20190;-84
2021/12/09 02:59:27;;;;;;;2.67;1.42;;;4.80;99.90;;;;;;4958132;28;20269;-81
2021/12/09 03:01:57;;;;;;;3.70;1.70;;;4.90;99.90;;;;;;4956661;29;20206;-87
2021/12/09 03:04:43;;;;;;;15.07;2.33;;;4.90;99.90;;;;;;4957507;28;20181;-84
2021/12/09 03:07:18;;;;;;;4.15;1.88;;;4.80;99.90;;;;;;4957181;29;20257;-84
2021/12/09 03:09:50;;;;;;;5.97;1.77;;;4.90;99.90;;;;;;4957725;28;20174;-85
2021/12/09 03:12:30;;;;;;;4.20;1.60;;;4.80;99.90;;;;;;4956597;29;20167;-84
2021/12/09 03:14:55;;;;;;;6.20;1.55;;;4.90;99.90;;;;;;4956349;29;20177;-84
2021/12/09 03:17:21;;;;;;;2.97;1.73;;;4.60;99.90;;;;;;4957498;29;20187;-87
2021/12/09 03:19:48;;;;;;;6.80;2.15;;;4.60;99.90;;;;;;4956695;29;20537;-83
2021/12/09 03:22:14;;;;;;;4.57;1.58;;;4.60;99.90;;;;;;4956189;29;20220;-82
2021/12/09 03:24:40;;;;;;;4.30;1.67;;;4.60;99.90;;;;;;4956121;29;21049;-83
2021/12/09 03:27:06;;;;;;;6.03;1.42;;;4.60;99.90;;;;;;4956131;29;20195;-84
2021/12/09 03:29:32;;;;;;;7.82;2.15;;;4.40;99.90;;;;;;4957538;28;20167;-85
2021/12/09 03:32:02;;;;;;;4.07;1.90;;;4.30;99.90;;;;;;4956115;28;20176;-81
2021/12/09 03:34:30;;;;;;;8.23;2.08;;;4.50;99.90;;;;;;4955301;29;20257;-84
2021/12/09 03:36:59;;;;;;;11.13;2.13;;;4.40;99.90;;;;;;4955612;29;20244;-85
2021/12/09 03:39:29;;;;;;;3.78;1.88;;;4.40;99.90;;;;;;4956912;28;20179;-84
2021/12/09 03:41:56;;;;;;;5.32;1.83;;;4.50;99.90;;;;;;4955883;28;20198;-81
2021/12/09 03:44:22;;;;;;;6.90;1.70;;;4.60;99.90;;;;;;4956925;28;20262;-87
2021/12/09 03:46:50;;;;;;;5.82;2.33;;;4.50;99.90;;;;;;4955979;29;20190;-84
2021/12/09 03:49:16;;;;;;;5.70;1.70;;;4.50;99.90;;;;;;4955911;29;20666;-85
2021/12/09 03:51:42;;;;;;;8.52;2.35;;;4.40;99.90;;;;;;4956888;28;20250;-83
2021/12/09 03:54:10;;;;;;;4.93;1.58;;;4.30;99.90;;;;;;4955538;29;20278;-85
2021/12/09 03:56:38;;;;;;;9.52;1.75;;;4.40;99.90;;;;;;4956601;28;20190;-87
2021/12/09 03:59:05;;;;;;;7.78;2.30;;;4.40;99.90;;;;;;4956791;28;20183;-85
2021/12/09 04:01:32;;;;;;;12.70;3.22;;;4.30;99.90;;;;;;4956347;28;20209;-83
2021/12/09 04:03:57;;;;;;;9.18;1.83;;;4.40;99.90;;;;;;4956689;28;20664;-83
2021/12/09 04:06:23;;;;;;;5.40;2.38;;;4.40;99.90;;;;;;4956009;29;20186;-84
2021/12/09 04:08:49;;;;;;;5.93;1.67;;;4.30;99.90;;;;;;4955458;29;20175;-85
2021/12/09 04:11:18;;;;;;;5.80;3.35;;;4.30;99.90;;;;;;4956350;29;20559;-84
2021/12/09 04:13:46;;;;;;;6.40;2.10;;;4.30;99.90;;;;;;4956055;29;20189;-81
2021/12/09 04:16:12;;;;;;;7.93;2.95;;;4.30;99.90;;;;;;4956233;28;20740;-82
2021/12/09 04:18:39;;;;;;;5.00;2.58;;;4.40;99.90;;;;;;4955184;29;20185;-84
2021/12/09 04:21:06;;;;;;;14.23;2.58;;;4.30;99.90;;;;;;4970979;28;20175;-81
2021/12/09 04:23:34;;;;;;;7.35;2.75;;;4.20;99.90;;;;;;4955000;29;20175;-82
2021/12/09 04:26:00;;;;;;;6.40;2.47;;;4.30;99.90;;;;;;4956102;29;20166;-84
2021/12/09 04:28:26;;;;;;;9.18;2.65;;;4.20;99.90;;;;;;4955845;29;20174;-83
2021/12/09 04:30:52;;;;;;;4.25;2.28;;;4.20;99.90;;;;;;4955021;29;20170;-86
2021/12/09 04:33:18;;;;;;;3.55;2.05;;;4.20;99.90;;;;;;4955982;29;20174;-84
2021/12/09 04:35:43;;;;;;;6.88;1.92;;;4.40;99.90;;;;;;4956018;29;20182;-83
2021/12/09 04:38:09;;;;;;;9.45;3.28;;;4.40;99.90;;;;;;4955760;29;20665;-83
2021/12/09 04:40:35;;;;;;;7.95;2.35;;;4.40;99.90;;;;;;4955809;28;20190;-86
2021/12/09 04:43:02;;;;;;;6.85;2.05;;;4.50;99.90;;;;;;4954296;28;20791;-86
2021/12/09 04:45:30;;;;;;;8.95;3.75;;;4.40;99.90;;;;;;4954576;29;20688;-84
2021/12/09 04:47:55;;;;;;;6.70;2.58;;;4.40;99.90;;;;;;4955675;28;20190;-82
2021/12/09 04:50:21;;;;;;;7.38;2.47;;;4.40;99.90;;;;;;4955717;28;20173;-85
2021/12/09 04:52:47;;;;;;;12.15;3.13;;;4.50;99.90;;;;;;4955227;29;20222;-84
2021/12/09 04:55:12;;;;;;;8.20;2.85;;;4.50;99.90;;;;;;4954254;29;20229;-84
2021/12/09 04:57:39;;;;;;;4.22;2.30;;;4.60;99.90;;;;;;4955462;29;20178;-87
2021/12/09 05:00:08;;;;;;;6.78;3.13;;;4.60;99.90;;;;;;4955885;29;20174;-80
2021/12/09 05:02:56;;;;;;;11.35;2.63;;;4.50;99.90;;;;;;4964541;29;20213;-82
2021/12/09 05:05:20;;;;;;;5.30;2.58;;;4.50;99.90;;;;;;4963650;29;20704;-81
2021/12/09 05:07:48;;;;;;;4.88;2.40;;;4.50;99.90;;;;;;4960875;28;20207;-86
2021/12/09 05:10:14;;;;;;;6.03;2.38;;;4.60;99.90;;;;;;4960268;29;20265;-84
2021/12/09 05:12:40;;;;;;;11.35;2.33;;;4.70;99.90;;;;;;4959086;29;20198;-85
2021/12/09 05:15:06;;;;;;;3.95;2.10;;;4.80;99.90;;;;;;4956765;29;20190;-85
2021/12/09 05:17:32;;;;;;;7.63;2.22;;;4.70;99.90;;;;;;4957699;29;20202;-84
2021/12/09 05:19:57;;;;;;;11.63;2.47;;;4.80;99.90;;;;;;4960073;29;20178;-84
2021/12/09 05:22:23;;;;;;;7.20;2.55;;;4.70;99.90;;;;;;4961798;29;20583;-84
2021/12/09 05:24:50;;;;;;;5.43;2.90;;;4.60;99.90;;;;;;4957329;29;20637;-86
2021/12/09 05:27:17;;;;;;;8.32;2.65;;;4.70;99.90;;;;;;4957543;28;20270;-86
2021/12/09 05:29:44;;;;;;;7.20;2.97;;;4.70;99.90;;;;;;4957744;28;20159;-83
2021/12/09 05:32:13;;;;;;;5.82;2.42;;;4.70;99.90;;;;;;4957310;29;20286;-83
2021/12/09 05:34:44;;;;;;;8.50;2.22;;;4.60;99.90;;;;;;4958335;29;20208;-85
2021/12/09 05:37:16;;;;;;;2.60;1.90;;;4.70;99.90;;;;;;4960204;29;20194;-83
2021/12/09 05:39:42;;;;;;;4.10;2.50;;;4.80;99.90;;;;;;4959693;29;20193;-81
2021/12/09 05:42:09;;;;;;;7.45;2.10;;;4.60;99.90;;;;;;4942954;29;20277;-86
2021/12/09 05:44:36;;;;;;;3.92;1.83;;;4.40;99.90;;;;;;4956593;29;20171;-87
2021/12/09 05:47:05;;;;;;;5.40;1.90;;;4.40;99.90;;;;;;4957781;28;20193;-80
2021/12/09 05:49:32;;;;;;;9.15;2.78;;;4.40;99.90;;;;;;4960227;29;20177;-82
2021/12/09 05:51:58;;;;;;;9.25;2.17;;;4.40;99.90;;;;;;4959181;29;20174;-83
2021/12/09 05:54:25;;;;;;;8.43;2.55;;;4.40;99.90;;;;;;4959614;28;20174;-83
2021/12/09 05:56:50;;;;;;;7.63;2.17;;;4.40;99.90;;;;;;4957718;29;20249;-83
2021/12/09 05:59:16;;;;;;;6.30;2.10;;;4.60;99.90;;;;;;4958920;28;20166;-79
2021/12/09 06:01:42;;;;;;;4.50;2.63;;;4.60;99.90;;;;;;4958736;29;20553;-82
2021/12/09 06:04:09;;;;;;;4.72;2.13;;;4.70;99.90;;;;;;4957874;29;20166;-84
2021/12/09 06:06:37;;;;;;;6.30;2.28;;;4.80;99.90;;;;;;4957347;29;20288;-82
2021/12/09 06:09:05;;;;;;;8.07;2.40;;;4.70;99.90;;;;;;4958243;28;20197;-86
2021/12/09 06:11:31;;;;;;;7.60;2.55;;;4.60;99.90;;;;;;4959696;28;20178;-80
2021/12/09 06:13:57;;;;;;;10.00;3.25;;;4.70;99.90;;;;;;4966479;29;20170;-79
2021/12/09 06:16:24;;;;;;;9.00;3.28;;;4.80;99.90;;;;;;4964778;29;20561;-85
2021/12/09 06:18:51;;;;;;;8.45;2.40;;;5.00;99.90;;;;;;4963644;28;20209;-82
2021/12/09 06:21:18;;;;;;;6.75;1.95;;;5.00;99.90;;;;;;4962309;29;20293;-84
2021/12/09 06:23:44;;;;;;;5.60;2.58;;;5.00;99.90;;;;;;4958241;28;20163;-83
2021/12/09 06:26:10;;;;;;;3.78;1.90;;;5.00;99.90;;;;;;4958428;28;20637;-84
2021/12/09 06:28:38;;;;;;;3.67;2.00;;;5.00;99.90;;;;;;4957019;29;20175;-84
2021/12/09 06:31:05;;;;;;;3.63;2.28;;;4.90;99.90;;;;;;4958296;28;20217;-85
2021/12/09 06:33:31;;;;;;;6.03;1.67;;;4.90;99.90;;;;;;4958049;28;20178;-83
2021/12/09 06:35:57;;;;;;;3.30;2.70;;;5.10;99.90;;;;;;4957071;29;20269;-83
2021/12/09 06:38:23;;;;;;;4.30;2.33;;;5.00;99.90;;;;;;4956927;29;20203;-83
2021/12/09 06:40:49;;;;;;;5.75;2.15;;;5.00;99.90;;;;;;4981864;23;20244;-82
2021/12/09 06:43:16;;;;;;;3.35;1.70;;;4.90;99.90;;;;;;4980312;28;20205;-78
2021/12/09 06:45:43;;;;;;;2.88;1.73;;;4.90;99.90;;;;;;4984949;28;20692;-78
2021/12/09 06:48:09;;;;;;;3.38;1.63;;;5.00;99.90;;;;;;4979192;28;20652;-78
2021/12/09 06:50:36;;;;;;;4.50;2.38;;;5.00;99.90;;;;;;4979424;28;20213;-79
2021/12/09 06:53:02;;;;;;;10.60;1.80;;;5.00;99.90;;;;;;4977446;28;20193;-78
2021/12/09 06:55:28;;;;;;;2.22;1.60;;;4.90;99.90;;;;;;4977701;28;20181;-82
2021/12/09 06:57:54;;;;;;;4.32;1.75;;;5.00;99.90;;;;;;4977015;28;20189;-80
2021/12/09 07:00:24;;;;;;;8.50;1.80;;;5.00;99.90;;;;;;4977117;28;20219;-78
2021/12/09 07:02:50;;;;;;;7.10;2.47;;;5.10;99.90;;;;;;4977067;28;20571;-77
2021/12/09 07:05:18;;;;;;;4.22;2.17;;;5.10;99.90;;;;;;4976009;28;20169;-85
2021/12/09 07:07:44;;;;;;;7.32;2.05;;;5.30;99.90;;;;;;4975888;28;20660;-79
2021/12/09 07:10:13;;;;;;;6.22;2.00;;;5.20;99.90;;;;;;4976745;28;20170;-79
2021/12/09 07:12:39;;;;;;;6.78;2.22;;;5.30;99.90;;;;;;4976478;28;20217;-83
2021/12/09 07:15:07;;;;;;;5.95;2.20;;;5.20;99.90;;;;;;4976000;28;20165;-83
2021/12/09 07:17:34;;;;;;;3.03;1.83;;;5.20;99.90;;;;;;4976795;28;20744;-78
2021/12/09 07:19:59;;;;;;;11.40;2.90;;;5.10;99.90;;;;;;4976625;28;20165;-77
2021/12/09 07:22:25;;;;;;;8.70;2.80;;;5.10;99.90;;;;;;4976459;28;20571;-78
2021/12/09 07:24:51;;;;;;;7.43;2.78;;;5.20;99.90;;;;;;4976733;28;20181;-82
2021/12/09 07:27:16;;;;;;;6.30;3.20;;;5.10;99.90;;;;;;4976238;28;20603;-78
2021/12/09 07:29:43;;;;;;;6.13;3.03;;;5.10;99.90;;;;;;4976717;28;20177;-78
2021/12/09 07:32:09;;;;;;;3.63;3.00;;;5.10;99.90;;;;;;4976406;28;20189;-78
2021/12/09 07:34:35;;;;;;;13.13;3.25;;;5.10;99.90;;;;;;4976209;28;20170;-83
2021/12/09 07:37:04;;;;;;;8.75;2.85;;;5.20;99.90;;;;;;4975927;28;20193;-85
2021/12/09 07:39:30;;;;;;;6.45;2.80;;;5.30;99.90;;;;;;4976455;28;20170;-82
2021/12/09 07:41:56;;;;;;;4.38;2.17;;;5.40;99.90;;;;;;4975711;28;20209;-80
2021/12/09 07:44:23;;;;;;;10.63;2.60;;;5.30;99.90;;;;;;4976167;28;20316;-82
2021/12/09 07:46:49;;;;;;;6.60;2.67;;;5.30;99.90;;;;;;4975931;28;20650;-78
2021/12/09 07:49:15;;;;;;;9.48;2.53;;;5.40;99.90;;;;;;4975522;28;20169;-79
2021/12/09 07:51:41;;;;;;;4.35;2.05;;;5.50;99.90;;;;;;4975440;28;20166;-76
2021/12/09 07:54:07;;;;;;;14.00;3.00;;;5.40;99.90;;;;;;4975795;28;20177;-78
2021/12/09 07:56:33;;;;;;;8.13;2.50;;;5.50;99.90;;;;;;4975609;28;20265;-79
2021/12/09 07:59:00;;;;;;;5.65;2.55;;;5.50;99.90;;;;;;4975298;28;20191;-78
2021/12/09 08:01:25;;;;;;;16.15;3.85;;;5.50;99.90;;;;;;4975630;28;20569;-78
2021/12/09 08:03:51;;;;;;;5.25;2.85;;;5.40;99.90;;;;;;4975523;28;20213;-78
2021/12/09 08:06:17;;;;;;;4.53;2.33;;;5.50;99.90;;;;;;4975428;28;20640;-79
2021/12/09 08:08:42;;;;;;;5.35;2.20;;;5.50;99.90;;;;;;4980434;28;20321;-77
2021/12/09 08:11:08;;;;;;;6.70;2.35;;;5.40;99.90;;;;;;4996090;28;20165;-75
2021/12/09 08:13:34;;;;;;;6.47;2.90;;;5.40;99.90;;;;;;4980123;28;20165;-77
2021/12/09 08:16:01;;;;;;;9.88;2.08;;;5.70;99.90;;;;;;4979902;28;20644;-78
2021/12/09 08:18:27;;;;;;;4.90;2.50;;;5.70;99.90;;;;;;4997197;28;20291;-78
2021/12/09 08:20:58;;;;;;;7.40;3.08;;;5.60;99.90;;;;;;4996369;28;20281;-80
2021/12/09 08:23:24;;;;;;;7.68;2.63;;;5.70;99.90;;;;;;4997635;28;20213;-78
2021/12/09 08:25:51;;;;;;;7.72;2.97;;;5.70;99.90;;;;;;4976341;28;20173;-80
2021/12/09 08:28:17;;;;;;;10.23;3.83;;;5.70;99.90;;;;;;4968460;28;20186;-82
2021/12/09 08:30:43;;;;;;;9.18;3.38;;;5.90;99.90;;;;;;4974193;28;20268;-79
2021/12/09 08:33:09;;;;;;;11.73;3.03;;;5.80;99.90;;;;;;4974974;28;20204;-82
2021/12/09 08:35:36;;;;;;;9.38;4.28;;;5.70;99.90;;;;;;4975110;28;20577;-82
2021/12/09 08:38:07;;;;;;;5.20;2.60;;;5.70;99.90;;;;;;4975763;28;20260;-78
2021/12/09 08:40:34;;;;;;;4.93;2.72;;;5.70;99.90;;;;;;4974219;28;20193;-79
2021/12/09 08:42:59;;;;;;;3.17;2.35;;;5.80;99.90;;;;;;4975289;28;20202;-81
2021/12/09 08:45:25;;;;;;;6.05;2.85;;;5.70;99.90;;;;;;4973623;28;20184;-80
2021/12/09 08:47:51;;;;;;;3.20;2.25;;;5.80;99.90;;;;;;4974884;28;20264;-80
2021/12/09 08:50:22;;;;;;;9.07;2.35;;;5.70;99.90;;;;;;4974598;28;20666;-79
2021/12/09 08:52:50;;;;;;;8.43;2.53;;;5.60;99.90;;;;;;4957997;28;20224;-81
2021/12/09 08:55:17;;;;;;;9.02;2.75;;;5.50;99.90;;;;;;4975349;28;20265;-78
2021/12/09 08:57:44;;;;;;;5.47;2.17;;;5.70;99.90;;;;;;4974834;28;20201;-78
2021/12/09 09:00:13;;;;;;;7.82;2.67;;;5.60;99.90;;;;;;4973112;28;20232;-80
2021/12/09 09:02:41;;;;;;;2.60;2.08;;;5.70;99.90;;;;;;4957506;28;20209;-83
2021/12/09 09:05:10;;;;;;;7.28;3.13;;;5.80;99.90;;;;;;4957033;28;20170;-81
2021/12/09 09:07:37;;;;;;;10.93;2.67;;;5.90;99.90;;;;;;4972535;28;20185;-78
2021/12/09 09:10:04;;;;;;;2.33;1.83;;;6.00;99.90;;;;;;4972816;28;20200;-82
2021/12/09 09:12:30;;;;;;;3.17;2.38;;;6.00;99.90;;;;;;4973577;28;20178;-80
2021/12/09 09:14:56;;;;;;;2.33;2.08;;;6.00;99.90;;;;;;4974613;28;20174;-83
2021/12/09 09:17:21;;;;;;;5.93;2.67;;;6.00;99.90;;;;;;4973420;28;20608;-81
2021/12/09 09:19:47;;;;;;;8.48;2.28;;;6.10;99.90;;;;;;4956381;28;20173;-83
2021/12/09 09:22:13;;;;;;;3.22;1.95;;;6.10;99.90;;;;;;4973354;28;20215;-79
2021/12/09 09:24:40;;;;;;;5.28;2.30;;;6.20;99.90;;;;;;4972713;28;20162;-79
2021/12/09 09:27:07;;;;;;;3.20;2.28;;;6.20;99.90;;;;;;4970431;28;20596;-78
2021/12/09 09:29:34;;;;;;;2.70;2.47;;;6.20;99.90;;;;;;4972880;28;20270;-77
2021/12/09 09:32:01;;;;;;;3.75;2.85;;;6.00;99.90;;;;;;4973438;28;20252;-77
2021/12/09 09:34:28;;;;;;;4.40;2.33;;;5.90;99.90;;;;;;4957001;28;20182;-79
2021/12/09 09:36:53;;;;;;;3.30;2.40;;;6.10;99.90;;;;;;4973576;28;20205;-80
2021/12/09 09:39:21;;;;;;;5.18;2.92;;;5.90;99.90;;;;;;4969492;28;20255;-83
2021/12/09 09:42:16;;;;;;;3.50;2.75;;;5.90;99.90;;;;;;4956016;28;20273;-79
2021/12/09 09:44:54;;;;;;;5.60;3.13;;;6.00;99.90;;;;;;4955726;28;20181;-79
2021/12/09 09:47:21;;;;;;;6.03;2.70;;;5.90;99.90;;;;;;4969965;28;20200;-80
2021/12/09 09:49:47;;;;;;;5.78;3.55;;;5.80;99.90;;;;;;4972529;28;20209;-79
2021/12/09 09:52:13;;;;;;;6.35;3.15;;;5.80;99.90;;;;;;4973125;28;20213;-80
2021/12/09 09:54:40;;;;;;;12.18;2.63;;;5.80;99.90;;;;;;4963997;28;20173;-80
2021/12/09 09:57:07;;;;;;;3.95;2.70;;;5.80;99.90;;;;;;4971999;28;20210;-79
2021/12/09 09:59:33;;;;;;;4.07;2.78;;;5.90;99.90;;;;;;4972213;28;20181;-78
2021/12/09 10:01:59;;;;;;;2.58;2.35;;;6.00;99.90;;;;;;4975248;28;20280;-79
2021/12/09 10:04:47;;;;;;;3.88;3.10;;;5.90;99.90;;;;;;4975842;28;20174;-83
2021/12/09 10:07:21;;;;;;;14.00;2.90;;;6.10;99.90;;;;;;4974129;28;20205;-80
2021/12/09 10:09:49;;;;;;;3.10;2.60;;;6.30;99.90;;;;;;4974204;28;20235;-77
2021/12/09 10:12:15;;;;;;;3.30;3.00;;;6.30;99.90;;;;;;4976226;28;20176;-80
2021/12/09 10:14:46;;;;;;;3.42;2.97;;;6.10;99.90;;;;;;4975323;28;20166;-87
2021/12/09 10:17:18;;;;;;;6.15;3.47;;;6.00;99.90;;;;;;4945708;28;20249;-79
2021/12/09 10:19:46;;;;;;;9.18;3.10;;;6.20;99.90;;;;;;4980193;28;20159;-81
2021/12/09 10:22:17;;;;;;;11.27;3.63;;;6.30;99.90;;;;;;4978067;28;20213;-86
2021/12/09 10:24:45;;;;;;;7.43;3.40;;;6.30;99.90;;;;;;4972553;28;20182;-84
2021/12/09 10:27:24;;;;;;;9.02;3.67;;;6.50;99.90;;;;;;4973651;28;20197;-83
2021/12/09 10:29:50;;;;;;;6.50;3.10;;;6.50;99.90;;;;;;4973248;28;20216;-81
2021/12/09 10:32:24;;;;;;;7.70;3.60;;;6.50;99.90;;;;;;4974970;28;20542;-80
2021/12/09 10:34:50;;;;;;;3.20;2.90;;;6.50;99.90;;;;;;4973233;28;20166;-85
2021/12/09 10:37:29;;;;;;;9.15;3.63;;;6.60;99.90;;;;;;4973599;28;20632;-78
2021/12/09 10:40:00;;;;;;;7.55;3.35;;;6.70;99.90;;;;;;4973672;28;20166;-80
2021/12/09 10:42:31;;;;;;;7.25;2.53;;;6.70;99.90;;;;;;4976610;28;20279;-85
2021/12/09 10:45:07;;;;;;;5.30;3.20;;;6.90;99.90;;;;;;4974511;28;20185;-77
2021/12/09 10:50:28;;;;;;;9.20;4.10;;;6.70;99.90;;;;;;4957900;29;20171;-85
2021/12/09 10:56:02;;;;;;;7.03;2.85;;;6.60;99.90;;;;;;4956603;28;20198;-77
2021/12/09 10:58:31;;;;;;;7.18;3.35;;;6.60;99.90;;;;;;4956103;29;20170;-77
2021/12/09 11:01:04;;;;;;;6.97;3.33;;;6.80;99.90;;;;;;4956832;29;20183;-83
2021/12/09 11:03:43;;;;;;;14.82;3.33;;;6.80;99.90;;;;;;4956782;29;20563;-83
2021/12/09 11:06:14;;;;;;;6.85;3.28;;;6.80;99.90;;;;;;4950087;29;20621;-83
2021/12/09 11:08:50;;;;;;;8.82;3.63;;;6.80;99.90;;;;;;4957237;29;20650;-83
2021/12/09 11:11:30;;;;;;;6.55;3.10;;;6.70;99.90;;;;;;4957138;29;20170;-78
2021/12/09 11:14:09;;;;;;;6.63;3.15;;;6.90;99.90;;;;;;4957360;29;20185;-82
2021/12/09 11:16:41;;;;;;;8.98;2.80;;;6.90;99.90;;;;;;4956243;29;20197;-81
2021/12/09 11:19:13;;;;;;;6.55;2.83;;;7.00;99.90;;;;;;4965958;28;20660;-85
2021/12/09 11:21:44;;;;;;;9.55;3.10;;;7.30;99.90;;;;;;4979135;28;20174;-84
2021/12/09 11:24:19;;;;;;;4.28;3.38;;;7.10;99.90;;;;;;4963210;28;20642;-84
2021/12/09 11:29:30;;;;;;;6.15;2.53;;;6.90;99.90;;;;;;4993500;28;20660;-78
2021/12/09 11:32:12;;;;;;;7.22;3.47;;;7.00;99.90;;;;;;4993173;28;20174;-79
2021/12/09 11:34:48;;;;;;;12.10;3.90;;;7.10;99.90;;;;;;4987679;28;20182;-78
2021/12/09 11:39:51;;;;;;;9.95;3.42;;;6.90;99.90;;;;;;4976429;28;20596;-78
2021/12/09 11:42:25;;;;;;;9.73;3.40;;;7.00;99.90;;;;;;4977134;28;20217;-78
2021/12/09 11:44:50;;;;;;;7.70;3.42;;;7.00;99.90;;;;;;4978313;28;20170;-78
2021/12/09 11:47:17;;;;;;;5.45;3.10;;;7.30;99.90;;;;;;4977647;28;20209;-78
2021/12/09 11:49:44;;;;;;;7.95;3.70;;;7.50;99.90;;;;;;4977573;28;20200;-78
2021/12/09 11:52:15;;;;;;;15.02;3.92;;;7.80;99.90;;;;;;4976443;28;20174;-78
2021/12/09 11:54:49;;;;;;;7.18;2.88;;;7.70;99.90;;;;;;4977184;28;20649;-77
2021/12/09 11:57:31;;;;;;;10.23;3.28;;;7.60;99.90;;;;;;4976451;28;20186;-78
2021/12/09 12:11:29;;;;;;;6.50;3.42;;;8.20;99.90;;;;;;4975682;28;20216;-76
2021/12/09 12:14:18;;;;;;;13.32;3.95;;;8.10;99.90;;;;;;4975074;28;20162;-78
2021/12/09 12:17:08;;;;;;;14.07;3.17;;;8.00;99.90;;;;;;4974687;28;20265;-78
2021/12/09 12:20:33;;;;;;;4.47;3.35;;;7.80;99.90;;;;;;4976645;28;20185;-77
2021/12/09 12:31:34;;;;;;;9.95;3.33;;;8.10;99.90;;;;;;4933591;28;20243;-79
2021/12/09 12:42:16;;;;;;;16.30;3.35;;;8.40;99.90;;;;;;4971656;28;20308;-79
2021/12/09 12:45:47;;;;;;;13.05;3.40;;;8.30;99.90;;;;;;4956150;28;20170;-79
2021/12/09 12:54:37;;;;;;;6.97;3.25;;;8.10;99.90;;;;;;4974653;28;20182;-77
2021/12/09 12:57:13;;;;;;;12.82;3.00;;;8.00;99.90;;;;;;4972591;28;20232;-76
2021/12/09 12:59:41;;;;;;;14.90;4.03;;;7.90;99.90;;;;;;4937266;29;20213;-78
2021/12/09 13:10:22;;;;;;;10.10;3.83;;;7.90;99.90;;;;;;4974264;28;20204;-79
2021/12/09 13:13:07;;;;;;;9.20;3.95;;;8.00;99.90;;;;;;4973397;28;20173;-81
2021/12/09 13:15:44;;;;;;;16.98;3.83;;;8.10;99.90;;;;;;4958330;28;20174;-81
2021/12/09 13:18:46;;;;;;;15.35;4.28;;;8.00;99.90;;;;;;4973702;28;20284;-78
2021/12/09 13:21:32;;;;;;;11.02;3.88;;;7.90;99.90;;;;;;4974374;28;20265;-82
2021/12/09 13:24:26;;;;;;;9.55;4.35;;;8.10;99.90;;;;;;4975848;28;20188;-86
2021/12/09 13:35:34;;;;;;;16.48;4.43;;;8.30;99.90;;;;;;4973894;28;20236;-79
2021/12/09 13:46:42;;;;;;;9.25;3.25;;;7.90;99.90;;;;;;4975333;28;20204;-82
2021/12/09 13:49:21;;;;;;;14.07;4.07;;;7.80;99.90;;;;;;4974090;28;20704;-86
2021/12/09 13:54:29;;;;;;;12.13;3.20;;;8.10;99.90;;;;;;4974274;28;20181;-78
2021/12/09 13:57:01;;;;;;;18.65;3.53;;;8.10;99.90;;;;;;4974137;28;20675;-80
2021/12/09 13:59:29;;;;;;;10.48;3.20;;;8.10;99.90;;;;;;4974127;28;20216;-78
2021/12/09 14:01:57;;;;;;;15.75;4.47;;;8.10;99.90;;;;;;4973731;28;20308;-77
2021/12/09 14:04:31;;;;;;;9.43;3.28;;;8.10;99.90;;;;;;4957413;28;20189;-79
2021/12/09 14:07:07;;;;;;;4.70;2.65;;;7.90;99.90;;;;;;4974606;28;20529;-78
2021/12/09 14:09:33;;;;;;;10.27;3.08;;;7.90;99.90;;;;;;4974066;28;20164;-78
2021/12/09 14:12:02;;;;;;;7.13;3.55;;;7.80;99.90;;;;;;4974410;28;20181;-79
2021/12/09 14:14:39;;;;;;;16.88;3.92;;;7.80;99.90;;;;;;4974081;28;20523;-79
2021/12/09 14:17:10;;;;;;;7.78;3.20;;;7.70;99.90;;;;;;4977351;28;20189;-78